메인 페이지
METAR-TAF:

METAR-TAF

공항 :

Dalhart Municipal Airport

Dalhart, 텍사스, 미국

위도: 36-01-24N, 경도: 102-32-50W, 고도: 1216m

현재 날씨관측

예보는 55분 전, 19:53시(UTC)에 발표되었습니다.
북북동13kt, 순간 최대 풍속 20kt
온도 12°C
습도 22%
기압 1023 hPa
시정: 16.1km
맑음

METAR: KDHT 191953Z AUTO 02013G20KT 10SM CLR 12/M09 A3020 RMK AO2 SLP231 T01171089

시각: 14:48 (20:48 UTC)

예보

예보는 3 시간 4분 전, 17:44시(UTC)에 발표되었습니다.
예보 대상 시간: 19일 18시부터 20일 18시까지 (UTC)
북북동13kt
시정: 10km
맑음
20일 0200시부터 (UTC)
여러 방향의 바람 4kt
시정: 10km
맑음

TAF: KDHT 191744Z 1918/2018 03013KT P6SM SKC FM200200 VRB04KT P6SM SKC

4,000개 이상의 공항 관측 자료 및 예보 (METAR 및 TAF 보고).

지도상에서 검색 가능한 기상관측소가 노란 점과 빨간 점으로 표시되어 있습니다.

기상관측소 명을 보려면 표시 위로 마우스를 이동하세요.

날씨 관측과 예보를 보려면 클릭하세요.

지도 변경 : 확대하려면 엑스 표시가 있는 녹색 버튼, 축소하려면 빼기 표시가 있는 녹색 버튼, 다음 페이지의 지도를 보려면 녹색 화살표를 클릭하세요.


METAR-TAF: